Wetterdaten: aktuell Donnerstag, 21.10.2021 17:00
Datum Zeit Temp. 2 m Feuchte 2 m Luftdruck Regen Wind Richtung Richtung Taupunkt Windchill Windben
21.10.2021 17:00 11,9 C 59 % 1001,0 hPa 0,0 l/m 20,5 km/h (4 Bft) W 270 4,1 C 5,6 C 31,0 km/h (5 Bft)
21.10.2021 16:55 12,0 C 59 % 1001,0 hPa 0,0 l/m 9,4 km/h (2 Bft) W-NW 292 4,2 C 10,1 C 15,5 km/h (3 Bft)
21.10.2021 16:50 12,1 C 59 % 1001,0 hPa 0,0 l/m 16,9 km/h (3 Bft) W-SW 247 4,3 C 7,0 C 28,8 km/h (5 Bft)
21.10.2021 16:45 12,2 C 58 % 1001,0 hPa 0,0 l/m 31,0 km/h (5 Bft) W-SW 247 4,2 C 3,6 C 35,3 km/h (5 Bft)
21.10.2021 16:40 12,2 C 58 % 1001,0 hPa 0,0 l/m 22,0 km/h (4 Bft) W-SW 247 4,2 C 5,6 C 33,1 km/h (5 Bft)
21.10.2021 16:35 12,3 C 57 % 1001,0 hPa 0,0 l/m 11,9 km/h (2 Bft) W-SW 247 4,0 C 9,2 C 26,3 km/h (4 Bft)
21.10.2021 16:30 12,4 C 57 % 1001,0 hPa 0,0 l/m 19,1 km/h (3 Bft) W-SW 247 4,1 C 6,7 C 24,1 km/h (4 Bft)
21.10.2021 16:25 12,5 C 57 % 1001,0 hPa 0,0 l/m 16,9 km/h (3 Bft) W-SW 247 4,2 C 7,5 C 24,1 km/h (4 Bft)
21.10.2021 16:20 12,5 C 57 % 1001,0 hPa 0,0 l/m 18,0 km/h (3 Bft) W 270 4,2 C 7,1 C 24,1 km/h (4 Bft)
21.10.2021 16:15 12,6 C 57 % 1001,0 hPa 0,0 l/m 13,0 km/h (3 Bft) SW 225 4,3 C 9,1 C 24,1 km/h (4 Bft)
21.10.2021 16:10 12,7 C 57 % 1001,0 hPa 0,0 l/m 23,0 km/h (4 Bft) W-SW 247 4,4 C 6,0 C 41,8 km/h (6 Bft)
21.10.2021 16:05 12,7 C 57 % 1001,0 hPa 0,0 l/m 16,6 km/h (3 Bft) W-SW 247 4,4 C 7,8 C 19,8 km/h (3 Bft)
21.10.2021 16:00 12,7 C 57 % 1001,0 hPa 0,0 l/m 18,4 km/h (3 Bft) SW 225 4,4 C 7,3 C 28,8 km/h (5 Bft)
21.10.2021 15:55 12,8 C 57 % 1001,0 hPa 0,0 l/m 12,6 km/h (3 Bft) W-SW 247 4,5 C 9,5 C 28,8 km/h (5 Bft)
21.10.2021 15:50 12,8 C 56 % 1001,0 hPa 0,0 l/m 19,1 km/h (3 Bft) NW 315 4,2 C 7,2 C 31,0 km/h (5 Bft)
21.10.2021 15:45 12,8 C 56 % 1000,0 hPa 0,0 l/m 27,4 km/h (5 Bft) W 270 4,2 C 5,1 C 33,1 km/h (5 Bft)
21.10.2021 15:40 13,0 C 56 % 1001,0 hPa 0,0 l/m 9,4 km/h (2 Bft) W-NW 292 4,4 C 11,2 C 22,0 km/h (4 Bft)
21.10.2021 15:35 13,2 C 56 % 1000,0 hPa 0,0 l/m 16,9 km/h (3 Bft) W-SW 247 4,6 C 8,4 C 24,1 km/h (4 Bft)
21.10.2021 15:30 13,2 C 55 % 1000,0 hPa 0,0 l/m 34,6 km/h (5 Bft) W 270 4,4 C 4,4 C 57,2 km/h (7 Bft)
21.10.2021 15:25 13,4 C 56 % 1000,0 hPa 0,0 l/m 26,3 km/h (4 Bft) W-SW 247 4,8 C 6,2 C 52,9 km/h (7 Bft)
21.10.2021 15:20 13,4 C 58 % 1000,0 hPa 0,0 l/m 13,7 km/h (3 Bft) NW 315 5,3 C 9,7 C 19,8 km/h (3 Bft)
21.10.2021 15:15 13,5 C 58 % 1000,0 hPa 0,0 l/m 19,4 km/h (3 Bft) W 270 5,4 C 8,0 C 33,1 km/h (5 Bft)
21.10.2021 15:10 13,6 C 58 % 1000,0 hPa 0,0 l/m 18,7 km/h (3 Bft) W 270 5,5 C 8,3 C 43,9 km/h (6 Bft)
21.10.2021 15:05 13,6 C 61 % 999,0 hPa 0,0 l/m 25,2 km/h (4 Bft) W-SW 247 6,2 C 6,7 C 41,8 km/h (6 Bft)
21.10.2021 15:00 13,6 C 62 % 999,0 hPa 0,0 l/m 17,3 km/h (3 Bft) SW 225 6,5 C 8,7 C 22,0 km/h (4 Bft)
21.10.2021 14:55 13,6 C 61 % 999,0 hPa 0,0 l/m 34,6 km/h (5 Bft) W 270 6,2 C 5,0 C 43,9 km/h (6 Bft)
21.10.2021 14:50 13,5 C 63 % 999,0 hPa 0,0 l/m 15,8 km/h (3 Bft) W-NW 292 6,6 C 9,1 C 33,1 km/h (5 Bft)
21.10.2021 14:45 13,4 C 63 % 999,0 hPa 0,0 l/m 20,2 km/h (4 Bft) W 270 6,5 C 7,6 C 28,8 km/h (5 Bft)
21.10.2021 14:40 13,2 C 64 % 999,0 hPa 0,0 l/m 25,2 km/h (4 Bft) W-SW 247 6,5 C 6,1 C 43,9 km/h (6 Bft)
21.10.2021 14:35 13,1 C 64 % 999,0 hPa 0,0 l/m 28,1 km/h (5 Bft) W-SW 247 6,4 C 5,4 C 52,9 km/h (7 Bft)
21.10.2021 14:30 12,9 C 62 % 999,0 hPa 0,0 l/m 14,4 km/h (3 Bft) W-SW 247 5,8 C 8,9 C 28,8 km/h (5 Bft)
21.10.2021 14:25 13,1 C 61 % 999,0 hPa 0,0 l/m 15,8 km/h (3 Bft) W-NW 292 5,8 C 8,6 C 26,3 km/h (4 Bft)
21.10.2021 14:20 13,4 C 60 % 998,0 hPa 0,0 l/m 41,4 km/h (6 Bft) W-NW 292 5,8 C 3,8 C 52,9 km/h (7 Bft)
21.10.2021 14:15 13,3 C 63 % 999,0 hPa 0,0 l/m 41,8 km/h (6 Bft) W 270 6,4 C 3,6 C 55,1 km/h (7 Bft)
21.10.2021 14:10 13,0 C 64 % 999,0 hPa 0,0 l/m 23,0 km/h (4 Bft) W-SW 247 6,4 C 6,4 C 48,6 km/h (6 Bft)
21.10.2021 14:05 12,8 C 65 % 999,0 hPa 0,0 l/m 25,2 km/h (4 Bft) W 270 6,4 C 5,6 C 41,8 km/h (6 Bft)
21.10.2021 14:00 12,7 C 66 % 998,0 hPa 0,0 l/m 33,5 km/h (5 Bft) W 270 6,5 C 3,8 C 43,9 km/h (6 Bft)
21.10.2021 13:55 12,4 C 68 % 998,0 hPa 0,0 l/m 34,9 km/h (5 Bft) N-NW 337 6,7 C 3,2 C 61,6 km/h (7 Bft)
21.10.2021 13:50 12,3 C 71 % 998,0 hPa 0,0 l/m 24,1 km/h (4 Bft) N-NW 337 7,2 C 5,2 C 35,3 km/h (5 Bft)
21.10.2021 13:45 11,9 C 73 % 998,0 hPa 0,0 l/m 12,6 km/h (3 Bft) NW 315 7,2 C 8,4 C 22,0 km/h (4 Bft)
21.10.2021 13:40 11,9 C 73 % 998,0 hPa 0,0 l/m 18,7 km/h (3 Bft) W 270 7,2 C 6,1 C 31,0 km/h (5 Bft)
21.10.2021 13:35 12,0 C 73 % 998,0 hPa 0,3 l/m 26,3 km/h (4 Bft) W 270 7,3 C 4,2 C 37,4 km/h (5 Bft)
21.10.2021 13:30 12,1 C 73 % 998,0 hPa 0,0 l/m 19,8 km/h (3 Bft) W-NW 292 7,4 C 6,1 C 35,3 km/h (5 Bft)
21.10.2021 13:25 12,3 C 72 % 997,0 hPa 0,0 l/m 23,4 km/h (4 Bft) W 270 7,4 C 5,3 C 41,8 km/h (6 Bft)
21.10.2021 13:20 12,7 C 71 % 997,0 hPa 0,0 l/m 28,4 km/h (5 Bft) W-SW 247 7,6 C 4,8 C 41,8 km/h (6 Bft)
21.10.2021 13:15 13,1 C 69 % 997,0 hPa 0,0 l/m 25,9 km/h (4 Bft) NW 315 7,5 C 5,8 C 41,8 km/h (6 Bft)
21.10.2021 13:10 13,6 C 65 % 997,0 hPa 0,0 l/m 34,6 km/h (5 Bft) SW 225 7,1 C 5,0 C 52,9 km/h (7 Bft)
21.10.2021 13:05 13,9 C 63 % 996,0 hPa 0,0 l/m 23,0 km/h (4 Bft) W-SW 247 7,0 C 7,6 C 33,1 km/h (5 Bft)
21.10.2021 13:00 14,1 C 62 % 996,0 hPa 0,0 l/m 50,4 km/h (7 Bft) W-SW 247 6,9 C 3,9 C 72,7 km/h (8 Bft)
21.10.2021 12:55 14,3 C 61 % 996,0 hPa 0,0 l/m 40,3 km/h (6 Bft) W 270 6,9 C 5,2 C 46,4 km/h (6 Bft)
21.10.2021 12:50 14,3 C 60 % 995,0 hPa 0,0 l/m 29,2 km/h (5 Bft) W-SW 247 6,6 C 6,8 C 46,4 km/h (6 Bft)
21.10.2021 12:45 14,3 C 60 % 995,0 hPa 0,0 l/m 20,9 km/h (4 Bft) SW 225 6,6 C 8,6 C 37,4 km/h (5 Bft)
21.10.2021 12:40 14,4 C 60 % 995,0 hPa 0,0 l/m 18,4 km/h (3 Bft) SW 225 6,7 C 9,4 C 26,3 km/h (4 Bft)
21.10.2021 12:35 14,5 C 60 % 994,0 hPa 0,0 l/m 34,2 km/h (5 Bft) W-SW 247 6,8 C 6,3 C 43,9 km/h (6 Bft)
21.10.2021 12:30 14,6 C 59 % 994,0 hPa 0,0 l/m 27,7 km/h (5 Bft) SW 225 6,7 C 7,5 C 41,8 km/h (6 Bft)
21.10.2021 12:25 14,7 C 59 % 994,0 hPa 0,0 l/m 26,3 km/h (4 Bft) S-SW 202 6,8 C 7,9 C 39,6 km/h (6 Bft)
21.10.2021 12:20 14,8 C 59 % 994,0 hPa 0,0 l/m 47,5 km/h (6 Bft) W-SW 247 6,9 C 5,3 C 61,6 km/h (7 Bft)
21.10.2021 12:15 14,8 C 59 % 994,0 hPa 0,0 l/m 24,1 km/h (4 Bft) W-NW 292 6,9 C 8,5 C 37,4 km/h (5 Bft)
21.10.2021 12:10 15,0 C 59 % 994,0 hPa 0,0 l/m 40,7 km/h (6 Bft) W 270 7,1 C 6,2 C 52,9 km/h (7 Bft)
21.10.2021 12:05 15,1 C 58 % 994,0 hPa 0,0 l/m 40,3 km/h (6 Bft) S-SW 202 6,9 C 6,4 C 59,4 km/h (7 Bft)
21.10.2021 12:00 15,1 C 59 % 994,0 hPa 0,0 l/m 30,2 km/h (5 Bft) W-SW 247 7,1 C 7,8 C 50,8 km/h (7 Bft)
_ Min-Zeit 13:40 18:00 06:30 - 22:00 - - 16:35 13:55 22:10
Minimum _ 11,9 C 53 % 992,0 hPa - 1,4 km/h (1 Bft) - - 4,0 C 3,2 C 2,2 km/h (1 Bft)
_ Max-Zeit 18:00 05:40 18:00 04:50 13:00 - - 00:05 18:30 13:00
Maximum _ 18,5 C 79 % 1005,0 hPa 0,3 l/m 50,4 km/h
W-SW (7 Bft)
- - 11,3 C 18,2 C 72,7 km/h
W-SW (8 Bft)
Durchschnitt _ 15,9 C 64 % 998,8 hPa #1,6 l/m 15,0 km/h (3 Bft) W-SW - 9,0 C 12,6 C 24,4 km/h (4 Bft)